createdAt,value
2023-02-08T00:04:22.518Z,8.68
2023-02-08T00:09:24.067Z,10.30
2023-02-08T00:14:25.571Z,8.70
2023-02-08T00:19:26.945Z,9.88
2023-02-08T00:24:28.506Z,9.93
2023-02-08T00:29:33.922Z,8.73
2023-02-08T00:34:35.326Z,11.13
2023-02-08T00:39:36.762Z,11.23
2023-02-08T00:44:38.174Z,9.85
2023-02-08T00:49:39.693Z,10.00
2023-02-08T00:54:41.965Z,9.32
2023-02-08T00:59:43.474Z,8.45
2023-02-08T01:04:44.899Z,9.38
2023-02-08T01:09:46.413Z,9.68
2023-02-08T01:14:48.995Z,10.98
2023-02-08T01:19:50.524Z,9.23
2023-02-08T01:24:51.946Z,9.50
2023-02-08T01:29:53.389Z,8.27
2023-02-08T01:34:54.935Z,10.73
2023-02-08T01:39:56.348Z,10.68
2023-02-08T01:45:16.379Z,12.30
2023-02-08T01:50:21.021Z,11.45
2023-02-08T01:55:34.194Z,11.82
2023-02-08T02:00:35.635Z,10.23
2023-02-08T02:05:43.030Z,8.77
2023-02-08T02:10:44.728Z,9.48
2023-02-08T02:15:47.981Z,10.60
2023-02-08T02:21:01.745Z,10.50
2023-02-08T02:26:39.703Z,9.52
2023-02-08T02:37:01.135Z,9.57
2023-02-08T02:42:45.217Z,9.82
2023-02-08T02:48:10.325Z,10.07
2023-02-08T02:53:18.105Z,8.45
2023-02-08T02:58:24.947Z,9.38
2023-02-08T03:03:28.456Z,9.68
2023-02-08T03:09:01.629Z,8.90
2023-02-08T03:14:04.720Z,9.13
2023-02-08T03:19:14.976Z,8.25
2023-02-08T03:24:27.154Z,10.20
2023-02-08T03:29:45.476Z,8.52
2023-02-08T03:35:08.749Z,8.80
2023-02-08T03:40:28.681Z,10.90
2023-02-08T03:45:37.924Z,10.20
2023-02-08T03:50:41.743Z,9.70
2023-02-08T03:55:47.862Z,9.80
2023-02-08T04:00:57.437Z,9.32
2023-02-08T04:05:58.999Z,9.38
2023-02-08T04:11:00.417Z,10.73
2023-02-08T04:16:01.853Z,8.85
2023-02-08T04:26:22.761Z,9.32
2023-02-08T04:31:24.274Z,9.45
2023-02-08T04:36:25.925Z,10.15
2023-02-08T04:41:27.327Z,10.38
2023-02-08T04:46:28.824Z,10.05
2023-02-08T04:51:30.334Z,10.07
2023-02-08T04:56:31.848Z,11.23
2023-02-08T05:01:33.775Z,9.82
2023-02-08T05:06:35.382Z,9.52
2023-02-08T05:11:37.642Z,10.15
2023-02-08T05:16:39.168Z,9.55
2023-02-08T05:21:40.716Z,9.18
2023-02-08T05:26:42.277Z,13.75
2023-02-08T05:31:43.860Z,14.80
2023-02-08T05:36:45.369Z,15.13
2023-02-08T05:41:46.769Z,16.63
2023-02-08T05:46:48.891Z,17.33
2023-02-08T05:51:50.449Z,17.48
2023-02-08T05:56:52.090Z,18.85
2023-02-08T06:01:53.496Z,21.45
2023-02-08T06:06:55.022Z,23.45
2023-02-08T06:11:57.349Z,21.42
2023-02-08T06:16:59.457Z,22.33
2023-02-08T06:22:01.134Z,22.35
2023-02-08T06:27:02.618Z,23.05
2023-02-08T06:32:04.378Z,20.00
2023-02-08T06:37:06.129Z,21.95
2023-02-08T06:42:07.565Z,21.17
2023-02-08T06:47:09.180Z,20.90
2023-02-08T06:52:10.620Z,22.00
2023-02-08T06:57:14.889Z,25.67
2023-02-08T07:02:18.794Z,22.75
2023-02-08T07:07:20.291Z,49.03
2023-02-08T07:12:21.742Z,32.58
2023-02-08T07:17:23.142Z,22.70
2023-02-08T07:22:24.593Z,20.27
2023-02-08T07:27:26.185Z,21.52
2023-02-08T07:32:27.823Z,23.70
2023-02-08T07:37:29.310Z,24.02
2023-02-08T07:42:30.764Z,20.42
2023-02-08T07:47:35.089Z,21.40
2023-02-08T07:52:36.540Z,19.80
2023-02-08T07:57:37.921Z,18.38
2023-02-08T08:02:39.610Z,18.48
2023-02-08T08:07:41.074Z,18.52
2023-02-08T08:12:42.531Z,22.15
2023-02-08T08:17:44.067Z,23.02
2023-02-08T08:22:45.625Z,21.45
2023-02-08T08:27:47.358Z,20.05
2023-02-08T08:32:48.763Z,20.58
2023-02-08T08:37:50.151Z,23.40
2023-02-08T08:42:51.599Z,23.00
2023-02-08T08:47:53.088Z,21.05
2023-02-08T08:52:54.553Z,21.00
2023-02-08T08:57:55.952Z,19.42
2023-02-08T09:02:57.493Z,22.13
2023-02-08T09:07:59.173Z,18.42
2023-02-08T09:13:00.773Z,20.13
2023-02-08T09:18:02.465Z,17.13
2023-02-08T09:23:04.007Z,19.55
2023-02-08T09:28:06.143Z,18.60
2023-02-08T09:33:07.601Z,18.25
2023-02-08T09:38:09.163Z,15.70
2023-02-08T09:43:21.997Z,15.65
2023-02-08T09:48:31.572Z,13.50
2023-02-08T09:53:36.644Z,13.27
2023-02-08T09:58:47.038Z,12.43
2023-02-08T10:03:52.102Z,10.98
2023-02-08T10:08:54.243Z,11.98
2023-02-08T10:14:05.000Z,11.40
2023-02-08T10:19:44.154Z,9.77
2023-02-08T10:25:08.500Z,11.52
2023-02-08T10:30:31.544Z,12.02
2023-02-08T10:35:37.490Z,10.18
2023-02-08T10:40:42.225Z,9.65
2023-02-08T10:46:07.005Z,10.23
2023-02-08T10:51:14.041Z,8.85
2023-02-08T11:01:26.379Z,9.60
2023-02-08T11:06:28.235Z,9.50
2023-02-08T11:11:39.275Z,10.63
2023-02-08T11:16:41.527Z,12.15
2023-02-08T11:21:49.136Z,10.77
2023-02-08T11:26:50.651Z,7.95
2023-02-08T11:31:54.767Z,8.50
2023-02-08T11:36:58.350Z,5.32
2023-02-08T11:42:02.304Z,7.55
2023-02-08T11:47:07.861Z,5.22
2023-02-08T11:52:27.680Z,7.03
2023-02-08T11:57:29.138Z,7.15
2023-02-08T12:02:40.108Z,6.20
2023-02-08T12:08:04.168Z,6.25
2023-02-08T12:13:20.634Z,6.72
2023-02-08T12:18:41.388Z,6.17
2023-02-08T12:23:50.352Z,5.63
2023-02-08T12:29:16.869Z,4.75
2023-02-08T12:35:01.961Z,4.13
2023-02-08T12:40:52.969Z,4.68
2023-02-08T12:46:09.372Z,4.43
2023-02-08T12:51:43.225Z,5.13
2023-02-08T12:57:01.487Z,3.92
2023-02-08T13:02:21.443Z,3.45
2023-02-08T13:07:30.780Z,3.28
2023-02-08T13:12:42.966Z,3.53
2023-02-08T13:17:55.601Z,3.35
2023-02-08T13:23:02.815Z,3.10
2023-02-08T13:28:09.088Z,4.07
2023-02-08T13:33:20.082Z,3.65
2023-02-08T13:38:32.615Z,4.15
2023-02-08T13:43:40.168Z,3.08
2023-02-08T13:48:48.393Z,3.92
2023-02-08T13:53:52.851Z,4.35
2023-02-08T13:59:01.638Z,3.25
2023-02-08T14:04:12.317Z,3.45
2023-02-08T14:09:22.905Z,3.63
2023-02-08T14:14:29.086Z,3.85
2023-02-08T14:19:32.420Z,3.17
2023-02-08T14:25:01.344Z,4.03
2023-02-08T14:30:11.903Z,6.30
2023-02-08T14:35:13.342Z,3.03
2023-02-08T14:40:25.178Z,4.95
2023-02-08T14:45:39.176Z,4.93
2023-02-08T14:50:54.258Z,4.10
2023-02-08T14:56:15.676Z,8.35
2023-02-08T15:01:21.722Z,4.32
2023-02-08T15:06:35.063Z,4.57
2023-02-08T15:11:36.586Z,3.67
2023-02-08T15:16:43.501Z,3.38
2023-02-08T15:26:49.298Z,5.68
2023-02-08T15:31:51.920Z,3.33
2023-02-08T15:36:56.105Z,3.92
2023-02-08T15:42:01.236Z,3.17
2023-02-08T15:47:05.508Z,5.22
2023-02-08T15:52:10.834Z,3.22
2023-02-08T15:57:36.561Z,3.85
2023-02-08T16:02:38.058Z,3.58
2023-02-08T16:07:46.642Z,4.40
2023-02-08T16:12:53.182Z,7.82
2023-02-08T16:17:54.603Z,6.80
2023-02-08T16:23:02.067Z,7.00
2023-02-08T16:28:04.977Z,5.47
2023-02-08T16:33:08.798Z,6.68
2023-02-08T16:38:17.653Z,4.15
2023-02-08T16:43:31.718Z,6.63
2023-02-08T16:48:35.994Z,16.02
2023-02-08T16:53:42.343Z,5.60
2023-02-08T16:58:43.999Z,11.40
2023-02-08T17:03:45.448Z,10.90
2023-02-08T17:08:46.914Z,8.40
2023-02-08T17:13:48.562Z,7.47
2023-02-08T17:18:50.519Z,15.02
2023-02-08T17:23:51.970Z,11.15
2023-02-08T17:28:54.841Z,12.00
2023-02-08T17:34:04.097Z,10.50
2023-02-08T17:39:06.062Z,8.07
2023-02-08T17:44:08.389Z,6.80
2023-02-08T17:49:10.022Z,4.45
2023-02-08T17:54:12.214Z,8.48
2023-02-08T17:59:13.936Z,7.57
2023-02-08T18:04:15.409Z,6.45
2023-02-08T18:09:16.896Z,42.28
2023-02-08T18:14:18.873Z,25.60
2023-02-08T18:19:20.675Z,5.68
2023-02-08T18:24:22.080Z,3.47
2023-02-08T18:29:23.850Z,3.30
2023-02-08T18:34:25.321Z,4.13
2023-02-08T18:39:27.211Z,2.83
2023-02-08T18:44:28.684Z,3.83
2023-02-08T18:49:30.197Z,3.90
2023-02-08T18:54:31.777Z,3.63
2023-02-08T18:59:33.531Z,4.22
2023-02-08T19:04:38.921Z,3.67
2023-02-08T19:09:41.231Z,4.35
2023-02-08T19:14:44.922Z,4.45
2023-02-08T19:19:46.469Z,4.28
2023-02-08T19:24:47.929Z,3.80
2023-02-08T19:29:51.527Z,4.18
2023-02-08T19:34:53.472Z,3.97
2023-02-08T19:39:55.301Z,7.38
2023-02-08T19:44:56.838Z,3.97
2023-02-08T19:49:59.710Z,3.90
2023-02-08T19:55:02.313Z,3.95
2023-02-08T20:00:11.220Z,4.38
2023-02-08T20:05:20.452Z,3.92
2023-02-08T20:10:25.269Z,4.10
2023-02-08T20:15:29.192Z,4.07
2023-02-08T20:20:33.593Z,4.30
2023-02-08T20:25:36.220Z,4.97
2023-02-08T20:30:40.850Z,5.45
2023-02-08T20:35:47.439Z,6.38
2023-02-08T20:40:50.348Z,6.07
2023-02-08T20:45:53.300Z,7.20
2023-02-08T20:50:55.488Z,8.50
2023-02-08T20:55:57.134Z,8.48
2023-02-08T21:00:58.942Z,6.18
2023-02-08T21:06:00.591Z,5.78
2023-02-08T21:11:04.337Z,6.82
2023-02-08T21:16:08.306Z,8.30
2023-02-08T21:21:12.367Z,8.10
2023-02-08T21:26:17.224Z,6.50
2023-02-08T21:31:22.363Z,7.00
2023-02-08T21:36:29.697Z,7.65
2023-02-08T21:41:33.345Z,8.13
2023-02-08T21:46:36.287Z,7.85
2023-02-08T21:51:58.138Z,8.60
2023-02-08T21:57:04.202Z,8.27
2023-02-08T22:02:28.532Z,9.07
2023-02-08T22:07:39.587Z,9.88
2023-02-08T22:12:49.211Z,8.98
2023-02-08T22:17:55.259Z,9.18
2023-02-08T22:22:58.250Z,13.23
2023-02-08T22:28:00.080Z,9.43
2023-02-08T22:33:02.315Z,8.05
2023-02-08T22:38:03.815Z,8.38
2023-02-08T22:43:05.390Z,9.52
2023-02-08T22:48:06.937Z,12.75
2023-02-08T22:53:10.479Z,10.80
2023-02-08T22:58:12.070Z,8.65
2023-02-08T23:03:17.333Z,7.40
2023-02-08T23:08:21.153Z,9.50
2023-02-08T23:13:22.668Z,10.32
2023-02-08T23:18:24.551Z,10.50
2023-02-08T23:23:26.082Z,11.38
2023-02-08T23:28:27.731Z,10.60
2023-02-08T23:33:37.714Z,8.63
2023-02-08T23:38:44.536Z,7.30
2023-02-08T23:43:49.516Z,6.05
2023-02-08T23:48:54.815Z,6.40
2023-02-08T23:53:56.354Z,6.70
2023-02-08T23:58:59.232Z,7.07
